メインページ
METAR-TAF:

METAR-TAF

空港 :

Al Jawf, サウジアラビア

緯度: 29-47N, 経度: 040-06E, 海抜: 689m

現時点の気象観測

当レポートは54分前の01:00(UTC)に作成
東/南東の風 5kt
気温 27°C
湿度 21%
気圧 1015 hPa
視程10km以上
1,500メートル以下は雲なし、積乱雲なし

METAR: OESK 250100Z 11005KT CAVOK 27/03 Q1015

時間: 04:54 (01:54 UTC)

予報

当レポートは2時間54分前の23:00(UTC)に作成
予報は25日の 00時(UTC)から 26日の 06時(UTC)まで有効
変向風 3kt
視程10km以上
高度4000ftの雲はほとんどない
25日の 06時(UTC)から 25日の 08時(UTC)まで徐々に
南/南東の風 10kt
25日の 10時(UTC)から 25日の 12時(UTC)まで徐々に
西の風 10kt

TAF: OESK 242300Z 2500/2606 VRB03KT 9999 FEW040 BECMG 2506/2508 15010KT BECMG 2510/2512 27010KT

4,000以上の空港の気象観測と天気予報(METAR報とTAF報)

利用可能な観測所は地図上に黄色い丸と赤い丸で示す。

丸の上にカーソルを重ねると観測所名を参照できる。

次にクリックすると気象観測と天気予報を参照できる。

マップの切り替え:黒色「×」印の緑ボタンをクリックして拡大、「-」印の緑ボタンをクリックして縮小、緑色の三角印をクリックして隣りの地図に切り替え


METAR-TAF: